Time;durP1;ratioP1;P1;durP2;ratioP2;P2;SDS_P1;SDS_P2;PMS_P1;PMS_P2;Temp;Humidity;BMP_temperature;BMP_pressure;BME280_temperature;BME280_humidity;BME280_pressure;Samples;Min_cycle;Max_cycle;Signal;HPM_P1;HPM_P2
2023/01/29 00:01:23;;;;;;;12.55;9.63;;;;;;;;;;5032906;28;20202;-61
2023/01/29 00:03:51;;;;;;;12.65;8.68;;;;;;;;;;5033053;28;20262;-61
2023/01/29 00:06:19;;;;;;;16.88;9.05;;;;;;;;;;5034384;28;20211;-61
2023/01/29 00:08:47;;;;;;;13.40;10.38;;;;;;;;;;5034024;28;20212;-61
2023/01/29 00:11:16;;;;;;;11.52;8.70;;;;;;;;;;5034119;28;20216;-61
2023/01/29 00:13:45;;;;;;;13.60;8.90;;;;;;;;;;5034442;28;20566;-61
2023/01/29 00:16:14;;;;;;;16.23;10.43;;;;;;;;;;5034146;28;20237;-61
2023/01/29 00:18:43;;;;;;;16.38;10.38;;;;;;;;;;5033375;28;20210;-61
2023/01/29 00:21:12;;;;;;;14.20;9.20;;;;;;;;;;5034129;28;20211;-61
2023/01/29 00:23:41;;;;;;;17.02;9.00;;;;;;;;;;5034301;28;20227;-60
2023/01/29 00:26:10;;;;;;;17.60;10.82;;;;;;;;;;5034248;28;20258;-61
2023/01/29 00:28:41;;;;;;;18.27;10.85;;;;;;;;;;5033257;28;20287;-61
2023/01/29 00:31:10;;;;;;;12.43;8.48;;;;;;;;;;5033820;28;20205;-61
2023/01/29 00:33:39;;;;;;;17.67;10.70;;;;;;;;;;5033802;28;20270;-60
2023/01/29 00:36:11;;;;;;;13.52;9.52;;;;;;;;;;5033316;28;20205;-61
2023/01/29 00:38:40;;;;;;;11.77;8.30;;;;;;;;;;5034194;28;20186;-61
2023/01/29 00:46:41;;;;;;;14.80;8.50;;;;;;;;;;5033278;28;20189;-61
2023/01/29 00:49:10;;;;;;;16.27;10.30;;;;;;;;;;5042735;28;20196;-61
2023/01/29 00:51:40;;;;;;;11.23;8.73;;;;;;;;;;5034676;28;20206;-61
2023/01/29 00:54:08;;;;;;;12.52;9.45;;;;;;;;;;5038652;28;20655;-62
2023/01/29 00:56:37;;;;;;;20.65;12.75;;;;;;;;;;5053094;28;20209;-61
2023/01/29 00:59:06;;;;;;;22.95;13.77;;;;;;;;;;5052157;28;20303;-61
2023/01/29 01:04:20;;;;;;;16.20;10.55;;;;;;;;;;5052195;28;20321;-61
2023/01/29 01:06:49;;;;;;;15.68;9.52;;;;;;;;;;5042979;28;20194;-61
2023/01/29 01:12:03;;;;;;;16.23;10.75;;;;;;;;;;5032702;28;20185;-61
2023/01/29 01:14:33;;;;;;;16.92;10.32;;;;;;;;;;5033322;28;20224;-62
2023/01/29 01:17:01;;;;;;;17.10;10.38;;;;;;;;;;5032578;28;20552;-62
2023/01/29 01:19:29;;;;;;;17.77;11.07;;;;;;;;;;5033137;28;20206;-63
2023/01/29 01:21:59;;;;;;;17.08;11.70;;;;;;;;;;5032517;28;20209;-62
2023/01/29 01:24:27;;;;;;;17.90;10.90;;;;;;;;;;5032630;28;20217;-60
2023/01/29 01:26:55;;;;;;;17.08;10.35;;;;;;;;;;5032056;28;20205;-60
2023/01/29 01:29:23;;;;;;;19.88;9.23;;;;;;;;;;5031372;28;20204;-62
2023/01/29 01:31:51;;;;;;;14.85;9.60;;;;;;;;;;5032415;28;20204;-62
2023/01/29 01:34:19;;;;;;;14.88;9.65;;;;;;;;;;5032537;28;20221;-62
2023/01/29 01:36:47;;;;;;;16.17;8.98;;;;;;;;;;5031157;28;20205;-62
2023/01/29 01:39:17;;;;;;;14.85;8.90;;;;;;;;;;5031207;28;20223;-62
2023/01/29 01:41:46;;;;;;;12.15;8.35;;;;;;;;;;5032613;28;20209;-62
2023/01/29 01:44:28;;;;;;;16.77;9.32;;;;;;;;;;5048850;28;20197;-62
2023/01/29 01:46:56;;;;;;;20.38;10.30;;;;;;;;;;5052293;28;20201;-62
2023/01/29 01:49:24;;;;;;;18.23;10.20;;;;;;;;;;5052348;28;20204;-62
2023/01/29 01:51:53;;;;;;;13.25;8.65;;;;;;;;;;5047727;28;20192;-62
2023/01/29 01:54:24;;;;;;;15.68;9.07;;;;;;;;;;5036347;28;20220;-62
2023/01/29 01:56:54;;;;;;;16.75;10.23;;;;;;;;;;5032777;28;20190;-62
2023/01/29 01:59:23;;;;;;;17.58;10.10;;;;;;;;;;5030398;28;20251;-62
2023/01/29 02:01:54;;;;;;;13.57;8.55;;;;;;;;;;5051365;28;20219;-62
2023/01/29 02:10:01;;;;;;;10.88;7.85;;;;;;;;;;5050491;28;20189;-62
2023/01/29 02:12:30;;;;;;;16.20;10.25;;;;;;;;;;5032224;28;20698;-62
2023/01/29 02:14:59;;;;;;;18.33;11.40;;;;;;;;;;5031699;28;20201;-62
2023/01/29 02:17:27;;;;;;;19.50;11.35;;;;;;;;;;5032209;28;20597;-62
2023/01/29 02:19:59;;;;;;;27.00;12.23;;;;;;;;;;5031666;28;20228;-63
2023/01/29 02:22:35;;;;;;;15.38;10.38;;;;;;;;;;5035713;28;20601;-62
2023/01/29 02:25:12;;;;;;;11.82;9.18;;;;;;;;;;5051647;28;20607;-63
2023/01/29 02:28:04;;;;;;;10.98;8.40;;;;;;;;;;5052593;28;20185;-62
2023/01/29 02:30:34;;;;;;;11.00;8.15;;;;;;;;;;5050671;28;20521;-62
2023/01/29 02:33:06;;;;;;;13.50;8.13;;;;;;;;;;5052342;28;20299;-61
2023/01/29 02:35:36;;;;;;;23.13;10.10;;;;;;;;;;5051631;28;20193;-61
2023/01/29 02:38:12;;;;;;;13.35;9.73;;;;;;;;;;5051007;28;20204;-63
2023/01/29 02:40:44;;;;;;;15.52;8.82;;;;;;;;;;5049986;28;20558;-63
2023/01/29 02:43:19;;;;;;;13.30;9.73;;;;;;;;;;5034309;28;20192;-63
2023/01/29 02:45:49;;;;;;;15.68;10.52;;;;;;;;;;5049261;28;20196;-63
2023/01/29 02:48:19;;;;;;;16.30;9.70;;;;;;;;;;5051102;28;20614;-62
2023/01/29 02:50:50;;;;;;;11.57;7.68;;;;;;;;;;5036701;28;20193;-62
2023/01/29 02:53:22;;;;;;;11.48;8.02;;;;;;;;;;5034485;28;20601;-62
2023/01/29 02:55:54;;;;;;;15.23;10.13;;;;;;;;;;5051246;28;20193;-62
2023/01/29 02:58:26;;;;;;;11.07;8.57;;;;;;;;;;5054241;28;20527;-62
2023/01/29 03:00:55;;;;;;;14.23;9.00;;;;;;;;;;5051110;28;20201;-62
2023/01/29 03:03:25;;;;;;;16.90;8.13;;;;;;;;;;5052508;28;20200;-62
2023/01/29 03:05:57;;;;;;;12.32;8.95;;;;;;;;;;5052877;28;20200;-62
2023/01/29 03:08:35;;;;;;;15.07;9.55;;;;;;;;;;5054561;28;20550;-62
2023/01/29 03:11:05;;;;;;;13.82;9.45;;;;;;;;;;5057681;28;20234;-61
2023/01/29 03:13:39;;;;;;;11.23;9.15;;;;;;;;;;5052851;28;20212;-59
2023/01/29 03:16:10;;;;;;;11.63;8.40;;;;;;;;;;5040290;28;20229;-60
2023/01/29 03:18:49;;;;;;;11.63;8.90;;;;;;;;;;5053501;28;20189;-60
2023/01/29 03:33:06;;;;;;;10.80;8.15;;;;;;;;;;5049250;28;20810;-60
2023/01/29 03:35:38;;;;;;;12.50;8.25;;;;;;;;;;5052428;28;20203;-60
2023/01/29 03:38:08;;;;;;;11.32;8.73;;;;;;;;;;5052929;28;20204;-60
2023/01/29 03:40:41;;;;;;;11.35;8.35;;;;;;;;;;5054595;28;20212;-61
2023/01/29 03:43:15;;;;;;;11.63;8.43;;;;;;;;;;5051431;28;20549;-60
2023/01/29 03:45:51;;;;;;;12.50;9.20;;;;;;;;;;5053441;28;20199;-60
2023/01/29 03:48:27;;;;;;;12.25;9.13;;;;;;;;;;5037470;28;20185;-60
2023/01/29 03:50:59;;;;;;;10.77;8.45;;;;;;;;;;5054458;28;20592;-60
2023/01/29 03:53:31;;;;;;;13.02;9.98;;;;;;;;;;5049395;28;20663;-59
2023/01/29 03:56:02;;;;;;;14.73;9.50;;;;;;;;;;5035048;28;20194;-59
2023/01/29 03:58:36;;;;;;;13.68;9.57;;;;;;;;;;5053463;28;20193;-60
2023/01/29 04:01:11;;;;;;;13.75;10.27;;;;;;;;;;5042817;28;20211;-61
2023/01/29 04:03:41;;;;;;;14.02;8.82;;;;;;;;;;5028930;28;20200;-60
2023/01/29 04:06:12;;;;;;;13.82;8.93;;;;;;;;;;5049465;28;20211;-60
2023/01/29 04:08:48;;;;;;;16.75;10.70;;;;;;;;;;5049453;28;20192;-61
2023/01/29 04:11:19;;;;;;;15.88;9.35;;;;;;;;;;5054253;28;20197;-59
2023/01/29 04:13:48;;;;;;;19.15;10.25;;;;;;;;;;5052514;28;20208;-60
2023/01/29 04:16:23;;;;;;;17.52;11.52;;;;;;;;;;5054360;28;20228;-59
2023/01/29 04:19:00;;;;;;;14.02;10.50;;;;;;;;;;5052737;28;20624;-60
2023/01/29 04:21:37;;;;;;;13.38;8.70;;;;;;;;;;5053147;28;20540;-60
2023/01/29 04:24:06;;;;;;;15.63;9.38;;;;;;;;;;5035766;28;20224;-61
2023/01/29 04:26:43;;;;;;;14.48;9.25;;;;;;;;;;5052625;28;20611;-63
2023/01/29 04:29:17;;;;;;;12.95;8.82;;;;;;;;;;5052726;28;20185;-61
2023/01/29 04:31:50;;;;;;;15.30;9.70;;;;;;;;;;5035421;28;20257;-62
2023/01/29 04:34:22;;;;;;;14.45;9.75;;;;;;;;;;5053888;28;20286;-60
2023/01/29 04:36:56;;;;;;;15.50;9.05;;;;;;;;;;5052168;28;20192;-61
2023/01/29 04:39:26;;;;;;;15.02;10.02;;;;;;;;;;5053815;28;20196;-61
2023/01/29 04:41:56;;;;;;;16.33;9.85;;;;;;;;;;5053118;28;20223;-61
2023/01/29 04:44:28;;;;;;;17.05;9.55;;;;;;;;;;5053907;28;20254;-61
2023/01/29 04:47:04;;;;;;;14.80;9.23;;;;;;;;;;5053122;28;20193;-62
2023/01/29 04:49:34;;;;;;;13.00;9.90;;;;;;;;;;5053922;28;20255;-62
2023/01/29 04:52:06;;;;;;;13.40;9.05;;;;;;;;;;5053086;28;20200;-61
2023/01/29 04:54:39;;;;;;;17.95;9.27;;;;;;;;;;5053752;28;20216;-61
2023/01/29 04:57:15;;;;;;;12.50;9.07;;;;;;;;;;5053355;28;20243;-62
2023/01/29 04:59:46;;;;;;;15.50;10.55;;;;;;;;;;5053381;28;20547;-61
2023/01/29 05:02:15;;;;;;;13.10;8.63;;;;;;;;;;5051701;28;20196;-61
2023/01/29 05:04:45;;;;;;;14.65;9.38;;;;;;;;;;5052293;28;20564;-61
2023/01/29 05:07:14;;;;;;;15.00;8.68;;;;;;;;;;5050679;28;20204;-62
2023/01/29 05:09:44;;;;;;;12.55;8.60;;;;;;;;;;5049815;28;20210;-61
2023/01/29 05:12:13;;;;;;;12.70;8.15;;;;;;;;;;5032964;28;20223;-61
2023/01/29 05:14:43;;;;;;;13.60;9.32;;;;;;;;;;5052226;28;20213;-61
2023/01/29 05:17:14;;;;;;;11.75;8.45;;;;;;;;;;5042029;28;20239;-62
2023/01/29 05:19:44;;;;;;;11.05;8.43;;;;;;;;;;5036693;28;20645;-62
2023/01/29 05:22:14;;;;;;;11.52;7.90;;;;;;;;;;5032231;28;20259;-61
2023/01/29 05:24:45;;;;;;;12.43;8.40;;;;;;;;;;5033920;28;20208;-61
2023/01/29 05:30:03;;;;;;;13.40;9.40;;;;;;;;;;5033812;28;20211;-61
2023/01/29 05:32:32;;;;;;;15.55;10.02;;;;;;;;;;5043651;28;20198;-61
2023/01/29 05:35:01;;;;;;;17.70;9.70;;;;;;;;;;5031065;28;20228;-62
2023/01/29 05:37:29;;;;;;;16.95;10.60;;;;;;;;;;5046214;28;20200;-62
2023/01/29 05:39:58;;;;;;;17.70;10.27;;;;;;;;;;5052774;28;20208;-62
2023/01/29 05:42:26;;;;;;;15.90;8.93;;;;;;;;;;5052831;28;20529;-62
2023/01/29 05:44:54;;;;;;;15.52;10.35;;;;;;;;;;5052539;28;20204;-61
2023/01/29 05:47:22;;;;;;;13.85;9.32;;;;;;;;;;5052618;28;20211;-60
2023/01/29 05:49:50;;;;;;;13.50;8.88;;;;;;;;;;5037339;28;20211;-61
2023/01/29 05:52:20;;;;;;;15.50;10.05;;;;;;;;;;5031603;28;20201;-60
2023/01/29 05:54:48;;;;;;;12.23;9.20;;;;;;;;;;5032454;28;20227;-61
2023/01/29 05:57:17;;;;;;;16.35;10.95;;;;;;;;;;5032548;28;20581;-61
2023/01/29 05:59:45;;;;;;;19.38;10.73;;;;;;;;;;5032505;28;20608;-60
2023/01/29 06:02:13;;;;;;;12.32;9.50;;;;;;;;;;5031397;28;20745;-61
2023/01/29 06:04:41;;;;;;;16.40;10.55;;;;;;;;;;5031504;28;20209;-62
2023/01/29 06:07:10;;;;;;;14.07;9.40;;;;;;;;;;5031594;28;20212;-61
2023/01/29 06:09:39;;;;;;;14.48;10.00;;;;;;;;;;5031952;28;20205;-61
2023/01/29 06:12:07;;;;;;;12.65;9.30;;;;;;;;;;5032510;28;20211;-60
2023/01/29 06:14:35;;;;;;;15.23;9.75;;;;;;;;;;5031617;28;20227;-61
2023/01/29 06:17:04;;;;;;;16.40;9.25;;;;;;;;;;5031602;28;20233;-62
2023/01/29 06:19:32;;;;;;;13.95;10.55;;;;;;;;;;5035913;28;20729;-62
2023/01/29 06:22:00;;;;;;;17.42;10.60;;;;;;;;;;5036542;28;20412;-62
2023/01/29 06:24:28;;;;;;;17.20;10.90;;;;;;;;;;5036221;28;20208;-62
2023/01/29 06:26:58;;;;;;;17.20;10.60;;;;;;;;;;5055021;28;20208;-63
2023/01/29 06:29:26;;;;;;;18.63;10.68;;;;;;;;;;5055960;28;20204;-62
2023/01/29 06:31:57;;;;;;;21.85;10.88;;;;;;;;;;5054340;28;20346;-62
2023/01/29 06:34:24;;;;;;;16.10;10.10;;;;;;;;;;5037931;28;20212;-61
2023/01/29 06:36:52;;;;;;;12.77;9.75;;;;;;;;;;5054782;28;20555;-62
2023/01/29 06:39:20;;;;;;;16.67;9.93;;;;;;;;;;5052255;28;20200;-62
2023/01/29 06:41:48;;;;;;;20.17;11.07;;;;;;;;;;5046759;28;20200;-62
2023/01/29 06:44:18;;;;;;;14.85;9.80;;;;;;;;;;5035716;28;20255;-62
2023/01/29 06:46:46;;;;;;;13.27;9.10;;;;;;;;;;5046776;28;20200;-62
2023/01/29 06:49:14;;;;;;;13.93;9.98;;;;;;;;;;5055697;28;20212;-62
2023/01/29 06:51:42;;;;;;;14.80;10.20;;;;;;;;;;5054236;28;20216;-61
2023/01/29 06:54:10;;;;;;;15.23;9.85;;;;;;;;;;5055414;28;20659;-62
2023/01/29 06:56:38;;;;;;;15.32;10.70;;;;;;;;;;5055369;28;20575;-61
2023/01/29 06:59:06;;;;;;;15.23;10.45;;;;;;;;;;5041130;28;20205;-61
2023/01/29 07:01:35;;;;;;;17.17;10.45;;;;;;;;;;5034117;28;20216;-61
2023/01/29 07:04:04;;;;;;;18.55;12.60;;;;;;;;;;5059804;28;20564;-60
2023/01/29 07:06:34;;;;;;;18.05;11.35;;;;;;;;;;5074914;28;20196;-61
2023/01/29 07:09:02;;;;;;;15.88;10.70;;;;;;;;;;5075181;28;20204;-62
2023/01/29 07:11:30;;;;;;;15.32;10.07;;;;;;;;;;5075189;28;20211;-60
2023/01/29 07:13:58;;;;;;;19.48;10.05;;;;;;;;;;5073418;28;20207;-62
2023/01/29 07:16:26;;;;;;;15.43;9.13;;;;;;;;;;5074449;28;20227;-61
2023/01/29 07:18:56;;;;;;;14.40;10.70;;;;;;;;;;5075058;28;20211;-60
2023/01/29 07:21:24;;;;;;;18.17;11.30;;;;;;;;;;5074570;28;20307;-61
2023/01/29 07:23:52;;;;;;;16.85;11.52;;;;;;;;;;5060292;28;20220;-60
2023/01/29 07:26:20;;;;;;;18.08;12.02;;;;;;;;;;5062682;28;20197;-61
2023/01/29 07:28:48;;;;;;;19.95;10.70;;;;;;;;;;5049691;28;20675;-60
2023/01/29 07:31:16;;;;;;;18.58;11.88;;;;;;;;;;5044729;28;20209;-61
2023/01/29 07:33:44;;;;;;;17.95;11.30;;;;;;;;;;5042041;28;20200;-61
2023/01/29 07:36:14;;;;;;;22.17;13.30;;;;;;;;;;5034321;28;20221;-61
2023/01/29 07:38:42;;;;;;;23.27;14.00;;;;;;;;;;5032534;28;20197;-61
2023/01/29 07:41:12;;;;;;;20.73;13.52;;;;;;;;;;5034600;28;20201;-61
2023/01/29 07:43:40;;;;;;;21.40;12.07;;;;;;;;;;5034898;28;20706;-61
2023/01/29 07:46:08;;;;;;;14.45;9.82;;;;;;;;;;5036833;28;20202;-61
2023/01/29 07:48:36;;;;;;;18.23;11.30;;;;;;;;;;5039860;28;20656;-61
2023/01/29 07:51:04;;;;;;;17.02;10.10;;;;;;;;;;5033493;28;20585;-60
2023/01/29 07:53:34;;;;;;;17.50;11.40;;;;;;;;;;5033269;28;20197;-61
2023/01/29 07:56:02;;;;;;;16.73;10.65;;;;;;;;;;5040476;28;20224;-61
2023/01/29 07:58:30;;;;;;;14.43;10.65;;;;;;;;;;5045772;28;20205;-61
2023/01/29 08:00:59;;;;;;;15.02;9.82;;;;;;;;;;5047566;28;20250;-61
2023/01/29 08:03:27;;;;;;;16.88;11.23;;;;;;;;;;5043278;28;20216;-61
2023/01/29 08:05:54;;;;;;;16.50;10.10;;;;;;;;;;5042914;28;20200;-61
2023/01/29 08:08:22;;;;;;;14.40;10.35;;;;;;;;;;5040905;28;20652;-61
2023/01/29 08:10:52;;;;;;;21.90;15.27;;;;;;;;;;5044428;28;20207;-61
2023/01/29 08:13:20;;;;;;;29.77;17.52;;;;;;;;;;5040728;28;20715;-61
2023/01/29 08:15:48;;;;;;;23.65;14.95;;;;;;;;;;5043978;28;20597;-61
2023/01/29 08:18:16;;;;;;;29.40;13.30;;;;;;;;;;5045365;28;20185;-60
2023/01/29 08:20:44;;;;;;;35.40;15.95;;;;;;;;;;5045393;28;20224;-61
2023/01/29 08:23:13;;;;;;;22.48;12.95;;;;;;;;;;5043435;28;20710;-61
2023/01/29 08:25:41;;;;;;;23.67;13.00;;;;;;;;;;5043696;28;20285;-62
2023/01/29 08:28:11;;;;;;;19.10;11.35;;;;;;;;;;5052929;28;20220;-61
2023/01/29 08:30:39;;;;;;;18.75;12.10;;;;;;;;;;5051972;28;20676;-61
2023/01/29 08:33:07;;;;;;;20.85;11.35;;;;;;;;;;5052937;28;20661;-60
2023/01/29 08:35:35;;;;;;;20.50;12.82;;;;;;;;;;5053016;28;20707;-62
2023/01/29 08:38:04;;;;;;;20.73;12.23;;;;;;;;;;5052675;28;20327;-62
2023/01/29 08:40:34;;;;;;;16.92;11.65;;;;;;;;;;5051873;28;20204;-62
2023/01/29 08:43:03;;;;;;;19.35;13.43;;;;;;;;;;5052076;28;20205;-62
2023/01/29 08:45:34;;;;;;;21.27;11.25;;;;;;;;;;5039808;28;20232;-62
2023/01/29 08:48:02;;;;;;;20.50;12.85;;;;;;;;;;5042299;28;20193;-62
2023/01/29 08:50:31;;;;;;;16.92;12.60;;;;;;;;;;5043972;28;20204;-62
2023/01/29 08:53:00;;;;;;;19.30;12.73;;;;;;;;;;5042550;28;20205;-62
2023/01/29 08:55:29;;;;;;;15.50;12.30;;;;;;;;;;5037896;28;20200;-62
2023/01/29 08:57:57;;;;;;;17.42;12.10;;;;;;;;;;5033712;28;20250;-62
2023/01/29 09:00:25;;;;;;;23.30;13.05;;;;;;;;;;5033391;28;20270;-61
2023/01/29 09:02:54;;;;;;;15.30;11.00;;;;;;;;;;5042800;28;20223;-62
2023/01/29 09:05:23;;;;;;;19.25;12.35;;;;;;;;;;5048244;28;20690;-61
2023/01/29 09:07:51;;;;;;;12.48;9.43;;;;;;;;;;5040634;28;20211;-62
2023/01/29 09:10:20;;;;;;;12.63;9.75;;;;;;;;;;5036307;28;20209;-63
2023/01/29 09:12:48;;;;;;;9.05;7.97;;;;;;;;;;5032500;28;20212;-60
2023/01/29 09:15:17;;;;;;;23.00;11.75;;;;;;;;;;5048963;28;20208;-62
2023/01/29 09:17:45;;;;;;;19.00;13.07;;;;;;;;;;5052121;28;20606;-61
2023/01/29 09:20:15;;;;;;;20.52;10.98;;;;;;;;;;5052945;28;20200;-62
2023/01/29 09:22:43;;;;;;;12.70;10.95;;;;;;;;;;5052610;28;20225;-62
2023/01/29 09:25:11;;;;;;;10.55;9.45;;;;;;;;;;5053432;28;20231;-62
2023/01/29 09:27:39;;;;;;;11.48;9.02;;;;;;;;;;5051182;28;20196;-61
2023/01/29 09:30:08;;;;;;;17.77;10.65;;;;;;;;;;5052807;28;20651;-62
2023/01/29 09:32:37;;;;;;;13.27;9.68;;;;;;;;;;5050866;28;20212;-61
2023/01/29 09:35:05;;;;;;;13.90;9.55;;;;;;;;;;5052880;28;20209;-61
2023/01/29 09:37:34;;;;;;;10.80;8.80;;;;;;;;;;5052052;28;20703;-62
2023/01/29 09:40:02;;;;;;;11.48;8.90;;;;;;;;;;5052602;28;20223;-62
2023/01/29 09:42:33;;;;;;;10.95;8.38;;;;;;;;;;5050795;28;20208;-61
2023/01/29 09:45:03;;;;;;;9.40;7.22;;;;;;;;;;5052268;28;20260;-61
2023/01/29 09:47:33;;;;;;;12.38;8.30;;;;;;;;;;5051891;28;20547;-61
2023/01/29 09:50:04;;;;;;;10.07;7.95;;;;;;;;;;5052197;28;20667;-61
2023/01/29 09:52:34;;;;;;;8.38;7.43;;;;;;;;;;5050873;28;20208;-62
2023/01/29 09:55:06;;;;;;;10.20;8.60;;;;;;;;;;5052056;28;20215;-61
2023/01/29 09:57:36;;;;;;;14.50;10.82;;;;;;;;;;5052644;28;20208;-61
2023/01/29 10:00:05;;;;;;;17.08;9.95;;;;;;;;;;5052404;28;20203;-61
2023/01/29 10:02:45;;;;;;;11.57;8.15;;;;;;;;;;5051349;28;20573;-61
2023/01/29 10:05:18;;;;;;;8.80;8.10;;;;;;;;;;5051103;28;20192;-62
2023/01/29 10:08:05;;;;;;;8.43;7.60;;;;;;;;;;5052083;28;20563;-62
2023/01/29 10:10:42;;;;;;;10.77;8.30;;;;;;;;;;5051956;28;20196;-62
2023/01/29 10:13:16;;;;;;;10.70;9.35;;;;;;;;;;5052421;28;20180;-62
2023/01/29 10:15:50;;;;;;;11.80;8.50;;;;;;;;;;5052017;28;20656;-62
2023/01/29 10:18:28;;;;;;;7.30;6.72;;;;;;;;;;5052490;28;20203;-62
2023/01/29 10:21:03;;;;;;;10.00;6.65;;;;;;;;;;5052101;28;20185;-62
2023/01/29 10:23:32;;;;;;;8.77;7.20;;;;;;;;;;5052453;28;20226;-61
2023/01/29 10:26:02;;;;;;;10.73;7.95;;;;;;;;;;5049448;28;20215;-62
2023/01/29 10:28:32;;;;;;;8.25;7.13;;;;;;;;;;5051848;28;20209;-62
2023/01/29 10:31:01;;;;;;;9.27;8.32;;;;;;;;;;5051618;28;20204;-62
2023/01/29 10:33:34;;;;;;;8.15;7.35;;;;;;;;;;5051161;28;20205;-63
2023/01/29 10:36:03;;;;;;;15.68;7.07;;;;;;;;;;5051640;28;20195;-62
2023/01/29 10:38:39;;;;;;;7.53;6.50;;;;;;;;;;5051686;28;20213;-62
2023/01/29 10:41:19;;;;;;;8.88;7.45;;;;;;;;;;5051556;28;20180;-61
2023/01/29 10:43:52;;;;;;;12.68;8.27;;;;;;;;;;5051239;28;20196;-61
2023/01/29 10:46:24;;;;;;;9.73;7.80;;;;;;;;;;5052285;28;20191;-61
2023/01/29 10:48:56;;;;;;;15.13;9.45;;;;;;;;;;5052243;28;20192;-62
2023/01/29 10:51:37;;;;;;;11.13;9.45;;;;;;;;;;5051505;28;20199;-62
2023/01/29 10:54:10;;;;;;;11.13;9.40;;;;;;;;;;5051894;28;20193;-62
2023/01/29 10:56:45;;;;;;;13.30;11.15;;;;;;;;;;5051741;28;20231;-62
2023/01/29 10:59:26;;;;;;;11.55;8.60;;;;;;;;;;5050989;28;20188;-62
2023/01/29 11:01:57;;;;;;;13.23;8.93;;;;;;;;;;5050618;28;20200;-61
2023/01/29 11:04:26;;;;;;;12.05;8.65;;;;;;;;;;5053895;28;20193;-62
2023/01/29 11:06:54;;;;;;;10.23;8.43;;;;;;;;;;5055061;28;20208;-62
2023/01/29 11:09:28;;;;;;;10.85;8.65;;;;;;;;;;5055162;28;20592;-61
2023/01/29 11:11:59;;;;;;;10.55;9.50;;;;;;;;;;5055246;28;20193;-61
2023/01/29 11:14:29;;;;;;;11.82;9.35;;;;;;;;;;5055135;28;20197;-61
2023/01/29 11:16:57;;;;;;;10.23;8.75;;;;;;;;;;5054879;28;20228;-61
2023/01/29 11:19:37;;;;;;;10.35;8.23;;;;;;;;;;5055647;28;20232;-61
2023/01/29 11:22:08;;;;;;;11.57;9.13;;;;;;;;;;5055679;28;20644;-61
2023/01/29 11:24:36;;;;;;;11.50;9.43;;;;;;;;;;5056129;28;20193;-61
2023/01/29 11:27:15;;;;;;;11.27;9.23;;;;;;;;;;5056032;28;20223;-61
2023/01/29 11:29:44;;;;;;;11.75;10.52;;;;;;;;;;5056015;28;20193;-62
2023/01/29 11:32:14;;;;;;;13.07;10.07;;;;;;;;;;5055429;28;20220;-61
2023/01/29 11:35:01;;;;;;;13.57;9.88;;;;;;;;;;5055691;28;20212;-61
2023/01/29 11:37:33;;;;;;;14.98;8.68;;;;;;;;;;5055022;28;20209;-62
2023/01/29 11:40:01;;;;;;;10.82;9.55;;;;;;;;;;5055142;28;20204;-62
2023/01/29 11:42:33;;;;;;;8.95;8.15;;;;;;;;;;5055197;28;20211;-62
2023/01/29 11:45:01;;;;;;;8.38;7.57;;;;;;;;;;5054755;28;20200;-62
2023/01/29 11:47:31;;;;;;;10.43;9.35;;;;;;;;;;5054577;28;20196;-62
2023/01/29 11:50:00;;;;;;;9.90;8.95;;;;;;;;;;5054468;28;20684;-63
2023/01/29 11:52:35;;;;;;;10.35;9.20;;;;;;;;;;5054492;28;20200;-62
2023/01/29 11:55:06;;;;;;;15.05;10.45;;;;;;;;;;5054572;28;20195;-62
2023/01/29 11:57:36;;;;;;;9.52;8.00;;;;;;;;;;5054816;28;20212;-62
2023/01/29 12:00:07;;;;;;;9.45;8.55;;;;;;;;;;5054166;28;20631;-62
2023/01/29 12:02:37;;;;;;;8.25;7.35;;;;;;;;;;5053410;28;20197;-62
2023/01/29 12:05:07;;;;;;;8.40;7.70;;;;;;;;;;5054125;28;20211;-62
2023/01/29 12:07:41;;;;;;;8.63;7.72;;;;;;;;;;5054126;28;20203;-62
2023/01/29 12:10:29;;;;;;;10.68;8.15;;;;;;;;;;5054286;28;20567;-62
2023/01/29 12:13:06;;;;;;;19.63;13.40;;;;;;;;;;5053338;28;20197;-62
2023/01/29 12:15:34;;;;;;;15.48;11.68;;;;;;;;;;5051881;28;20188;-62
2023/01/29 12:18:06;;;;;;;7.93;7.13;;;;;;;;;;5053394;28;20220;-61
2023/01/29 12:20:36;;;;;;;7.78;6.95;;;;;;;;;;5054046;28;20188;-62
2023/01/29 12:23:17;;;;;;;7.90;7.20;;;;;;;;;;5053485;28;20305;-62
2023/01/29 12:25:51;;;;;;;8.15;7.45;;;;;;;;;;5054395;28;20180;-60
2023/01/29 12:28:32;;;;;;;7.95;7.35;;;;;;;;;;5039517;28;20201;-63
2023/01/29 12:31:09;;;;;;;10.40;7.55;;;;;;;;;;5033937;28;20719;-62
2023/01/29 12:33:40;;;;;;;10.35;7.72;;;;;;;;;;5033741;28;20185;-62
2023/01/29 12:36:11;;;;;;;12.13;7.40;;;;;;;;;;5033623;28;20193;-62
2023/01/29 12:38:40;;;;;;;11.35;7.68;;;;;;;;;;5033535;28;20216;-61
2023/01/29 12:41:16;;;;;;;7.43;6.28;;;;;;;;;;5034084;28;20205;-63
2023/01/29 12:43:48;;;;;;;8.68;7.97;;;;;;;;;;5033209;28;20640;-63
2023/01/29 12:46:24;;;;;;;7.53;6.82;;;;;;;;;;5032564;28;20201;-62
2023/01/29 12:48:53;;;;;;;7.97;7.28;;;;;;;;;;5033376;28;20187;-62
2023/01/29 12:51:24;;;;;;;8.00;7.30;;;;;;;;;;5033212;28;20201;-62
2023/01/29 12:53:56;;;;;;;8.38;7.30;;;;;;;;;;5033386;28;20188;-62
2023/01/29 12:56:29;;;;;;;9.27;8.48;;;;;;;;;;5033195;28;20752;-62
2023/01/29 12:59:00;;;;;;;9.82;8.65;;;;;;;;;;5033269;28;20213;-62
2023/01/29 13:01:31;;;;;;;9.35;8.43;;;;;;;;;;5033019;28;20535;-62
2023/01/29 13:04:02;;;;;;;10.07;8.95;;;;;;;;;;5032394;28;20231;-62
2023/01/29 13:06:32;;;;;;;8.60;7.75;;;;;;;;;;5033019;28;20193;-62
2023/01/29 13:09:03;;;;;;;9.27;8.50;;;;;;;;;;5033623;28;20213;-61
2023/01/29 13:11:34;;;;;;;11.15;10.10;;;;;;;;;;5033258;28;20189;-62
2023/01/29 13:14:07;;;;;;;9.10;8.40;;;;;;;;;;5032894;28;20677;-62
2023/01/29 13:16:38;;;;;;;9.65;8.85;;;;;;;;;;5032740;28;20233;-61
2023/01/29 13:19:08;;;;;;;9.43;8.73;;;;;;;;;;5033036;28;20584;-62
2023/01/29 13:21:38;;;;;;;10.25;9.45;;;;;;;;;;5032896;28;20209;-63
2023/01/29 13:24:12;;;;;;;9.30;8.50;;;;;;;;;;5031982;28;20283;-62
2023/01/29 13:26:41;;;;;;;10.35;9.45;;;;;;;;;;5032626;28;20186;-62
2023/01/29 13:29:21;;;;;;;9.10;8.40;;;;;;;;;;5048544;28;20205;-62
2023/01/29 13:31:50;;;;;;;9.35;8.60;;;;;;;;;;5032432;28;20658;-62
2023/01/29 13:34:22;;;;;;;9.30;8.60;;;;;;;;;;5032934;28;20657;-62
2023/01/29 13:36:51;;;;;;;10.40;9.60;;;;;;;;;;5031990;28;20657;-60
2023/01/29 13:39:21;;;;;;;13.45;12.10;;;;;;;;;;5032646;28;20224;-62
2023/01/29 13:41:50;;;;;;;9.63;8.85;;;;;;;;;;5037984;28;20600;-62
2023/01/29 13:44:24;;;;;;;9.68;8.98;;;;;;;;;;5040926;28;20201;-61
2023/01/29 13:46:55;;;;;;;25.42;16.30;;;;;;;;;;5038590;28;20694;-63
2023/01/29 13:49:28;;;;;;;27.95;20.58;;;;;;;;;;5036522;28;20557;-64
2023/01/29 13:51:57;;;;;;;13.18;11.82;;;;;;;;;;5035492;28;20572;-63
2023/01/29 13:54:27;;;;;;;18.02;14.43;;;;;;;;;;5032901;28;20565;-63
2023/01/29 13:57:00;;;;;;;11.57;10.48;;;;;;;;;;5015500;28;20205;-62
2023/01/29 13:59:52;;;;;;;14.60;11.82;;;;;;;;;;5032681;28;20718;-62
2023/01/29 14:02:23;;;;;;;10.18;9.38;;;;;;;;;;5030807;28;20205;-63
2023/01/29 14:04:51;;;;;;;15.98;12.98;;;;;;;;;;5031402;28;20212;-62
2023/01/29 14:07:37;;;;;;;14.30;10.73;;;;;;;;;;5031814;28;20205;-62
2023/01/29 14:10:15;;;;;;;10.00;9.20;;;;;;;;;;5037394;28;20200;-62
2023/01/29 14:12:45;;;;;;;9.82;8.93;;;;;;;;;;5050075;28;20208;-61
2023/01/29 14:15:17;;;;;;;12.80;11.55;;;;;;;;;;5048401;28;20205;-61
2023/01/29 14:17:59;;;;;;;10.75;9.65;;;;;;;;;;5031835;28;20245;-62
2023/01/29 14:20:31;;;;;;;21.17;15.77;;;;;;;;;;5032227;28;20190;-62
2023/01/29 14:23:00;;;;;;;19.27;14.90;;;;;;;;;;5030438;28;20228;-64
2023/01/29 14:25:30;;;;;;;12.85;11.70;;;;;;;;;;5036353;28;20199;-62
2023/01/29 14:27:59;;;;;;;10.45;9.50;;;;;;;;;;5051280;28;20204;-63
2023/01/29 14:30:28;;;;;;;16.92;13.43;;;;;;;;;;5032216;28;20198;-62
2023/01/29 14:32:57;;;;;;;11.00;9.98;;;;;;;;;;5033559;28;20201;-62
2023/01/29 14:35:29;;;;;;;10.25;9.50;;;;;;;;;;5036586;28;20300;-62
2023/01/29 14:37:59;;;;;;;11.85;10.85;;;;;;;;;;5053104;28;20191;-63
2023/01/29 14:40:29;;;;;;;11.07;10.07;;;;;;;;;;5054406;28;20253;-62
2023/01/29 14:43:00;;;;;;;11.13;10.25;;;;;;;;;;5055932;28;20197;-63
2023/01/29 14:45:29;;;;;;;13.98;12.68;;;;;;;;;;5050739;28;20198;-62
2023/01/29 14:48:03;;;;;;;13.50;12.15;;;;;;;;;;5034761;28;20201;-62
2023/01/29 14:50:46;;;;;;;13.05;11.50;;;;;;;;;;5039518;28;20196;-62
2023/01/29 14:53:17;;;;;;;11.13;10.15;;;;;;;;;;5045738;28;20693;-62
2023/01/29 14:55:49;;;;;;;12.73;11.43;;;;;;;;;;5045741;28;20198;-62
2023/01/29 14:58:19;;;;;;;14.65;13.15;;;;;;;;;;5043027;28;20572;-62
2023/01/29 15:00:51;;;;;;;9.95;9.25;;;;;;;;;;5052304;28;20196;-63
2023/01/29 15:03:23;;;;;;;10.70;9.77;;;;;;;;;;5042690;28;20198;-63
2023/01/29 15:05:52;;;;;;;10.48;9.57;;;;;;;;;;5039319;28;20659;-62
2023/01/29 15:08:22;;;;;;;10.40;9.50;;;;;;;;;;5052437;28;20652;-62
2023/01/29 15:11:32;;;;;;;11.07;9.95;;;;;;;;;;5039766;28;20192;-62
2023/01/29 15:13:44;;;;;;;10.45;9.35;;;;;;;;;;5050583;28;20209;-62
2023/01/29 15:16:15;;;;;;;11.45;10.38;;;;;;;;;;5054449;28;20298;-62
2023/01/29 15:18:45;;;;;;;11.93;10.82;;;;;;;;;;5054788;28;20676;-62